createdAt,value
2023-05-08T00:00:56.297Z,9.309196
2023-05-08T00:01:56.270Z,9.309216
2023-05-08T00:02:56.412Z,9.309194
2023-05-08T00:03:56.477Z,9.309133
2023-05-08T00:04:56.380Z,9.309162
2023-05-08T00:05:56.265Z,9.309148
2023-05-08T00:06:56.241Z,9.309143
2023-05-08T00:07:56.361Z,9.309199
2023-05-08T00:08:56.249Z,9.309167
2023-05-08T00:09:56.295Z,9.309123
2023-05-08T00:10:56.181Z,9.309140
2023-05-08T00:11:56.077Z,9.309126
2023-05-08T00:13:17.157Z,9.309279
2023-05-08T00:14:29.529Z,9.309180
2023-05-08T00:14:57.035Z,9.309151
2023-05-08T00:15:56.113Z,9.309189
2023-05-08T00:16:56.293Z,9.309088
2023-05-08T00:17:56.063Z,9.309052
2023-05-08T00:18:56.033Z,9.309076
2023-05-08T00:19:56.096Z,9.309134
2023-05-08T00:20:56.082Z,9.309204
2023-05-08T00:21:56.163Z,9.309126
2023-05-08T00:22:56.059Z,9.309120
2023-05-08T00:23:56.092Z,9.309126
2023-05-08T00:24:56.048Z,9.309118
2023-05-08T00:25:55.998Z,9.309124
2023-05-08T00:26:56.416Z,9.309249
2023-05-08T00:27:56.016Z,9.309339
2023-05-08T00:28:56.014Z,9.309106
2023-05-08T00:29:55.916Z,9.309093
2023-05-08T00:30:55.924Z,9.309037
2023-05-08T00:31:56.007Z,9.309061
2023-05-08T00:32:56.104Z,9.309115
2023-05-08T00:33:56.094Z,9.309124
2023-05-08T00:34:56.071Z,9.308983
2023-05-08T00:35:55.914Z,9.308892
2023-05-08T00:36:55.875Z,9.308973
2023-05-08T00:37:56.084Z,9.309018
2023-05-08T00:38:55.872Z,9.309079
2023-05-08T00:39:55.869Z,9.309091
2023-05-08T00:40:55.928Z,9.309005
2023-05-08T00:41:55.834Z,9.309087
2023-05-08T00:42:55.880Z,9.309092
2023-05-08T00:43:55.922Z,9.309171
2023-05-08T00:44:55.819Z,9.309114
2023-05-08T00:45:56.040Z,9.309200
2023-05-08T00:46:55.951Z,9.309164
2023-05-08T00:47:55.923Z,9.309072
2023-05-08T00:48:55.955Z,9.309094
2023-05-08T00:49:55.960Z,9.309130
2023-05-08T00:50:55.878Z,9.309262
2023-05-08T00:51:55.861Z,9.309323
2023-05-08T00:52:55.909Z,9.309237
2023-05-08T00:53:55.836Z,9.309196
2023-05-08T00:54:55.834Z,9.309257
2023-05-08T00:55:55.927Z,9.309167
2023-05-08T00:56:55.801Z,9.309072
2023-05-08T00:57:55.762Z,9.309108
2023-05-08T00:58:55.777Z,9.309131
2023-05-08T00:59:55.872Z,9.309128
2023-05-08T01:00:55.850Z,9.309162
2023-05-08T01:01:55.832Z,9.309192
2023-05-08T01:02:55.898Z,9.309171
2023-05-08T01:03:55.865Z,9.309053
2023-05-08T01:04:55.688Z,9.309144
2023-05-08T01:05:55.753Z,9.309044
2023-05-08T01:06:55.708Z,9.309082
2023-05-08T01:07:55.681Z,9.309070
2023-05-08T01:08:55.657Z,9.309073
2023-05-08T01:09:55.752Z,9.309120
2023-05-08T01:10:55.883Z,9.309142
2023-05-08T01:11:55.678Z,9.309207
2023-05-08T01:12:55.653Z,9.309094
2023-05-08T01:13:55.792Z,9.309088
2023-05-08T01:14:55.647Z,9.309108
2023-05-08T01:15:55.674Z,9.308909
2023-05-08T01:16:55.715Z,9.308974
2023-05-08T01:17:55.736Z,9.308834
2023-05-08T01:18:55.846Z,9.309052
2023-05-08T01:19:55.728Z,9.309133
2023-05-08T01:20:55.556Z,9.309083
2023-05-08T01:21:55.642Z,9.309090
2023-05-08T01:22:55.657Z,9.309090
2023-05-08T01:23:55.635Z,9.309093
2023-05-08T01:24:55.588Z,9.309094
2023-05-08T01:25:55.598Z,9.309118
2023-05-08T01:26:55.629Z,9.309112
2023-05-08T01:27:56.004Z,9.309108
2023-05-08T01:28:55.532Z,9.309077
2023-05-08T01:29:55.564Z,9.309078
2023-05-08T01:30:55.517Z,9.309124
2023-05-08T01:31:55.597Z,9.309062
2023-05-08T01:32:55.695Z,9.309073
2023-05-08T01:33:55.678Z,9.309024
2023-05-08T01:34:55.576Z,9.309034
2023-05-08T01:35:55.517Z,9.309142
2023-05-08T01:36:55.507Z,9.309170
2023-05-08T01:37:55.533Z,9.309107
2023-05-08T01:38:55.560Z,9.309089
2023-05-08T01:39:55.503Z,9.309077
2023-05-08T01:40:55.477Z,9.309163
2023-05-08T01:41:55.519Z,9.309081
2023-05-08T01:42:55.433Z,9.309098
2023-05-08T01:43:55.754Z,9.309113
2023-05-08T01:44:55.457Z,9.309092
2023-05-08T01:45:55.666Z,9.309182
2023-05-08T01:46:55.582Z,9.309131
2023-05-08T01:47:55.520Z,9.309085
2023-05-08T01:49:05.206Z,9.309153
2023-05-08T01:49:56.445Z,9.309155
2023-05-08T01:50:55.655Z,9.309214
2023-05-08T01:51:55.392Z,9.309150
2023-05-08T01:52:55.401Z,9.309103
2023-05-08T01:53:55.448Z,9.309134
2023-05-08T01:54:55.310Z,9.309093
2023-05-08T01:55:55.378Z,9.309070
2023-05-08T01:56:55.395Z,9.309054
2023-05-08T01:57:55.358Z,9.309080
2023-05-08T01:58:55.445Z,9.309067
2023-05-08T01:59:55.380Z,9.309108
2023-05-08T02:00:55.388Z,9.309185
2023-05-08T02:01:55.371Z,9.309085
2023-05-08T02:02:55.478Z,9.309078
2023-05-08T02:03:55.461Z,9.309078
2023-05-08T02:04:55.480Z,9.309082
2023-05-08T02:05:55.338Z,9.309113
2023-05-08T02:06:55.296Z,9.309128
2023-05-08T02:07:55.397Z,9.309102
2023-05-08T02:08:55.345Z,9.309067
2023-05-08T02:09:55.334Z,9.309078
2023-05-08T02:10:55.395Z,9.309048
2023-05-08T02:11:55.330Z,9.309112
2023-05-08T02:12:55.320Z,9.309072
2023-05-08T02:13:55.316Z,9.309075
2023-05-08T02:14:55.264Z,9.309029
2023-05-08T02:15:55.238Z,9.308987
2023-05-08T02:16:55.366Z,9.309064
2023-05-08T02:17:55.415Z,9.309004
2023-05-08T02:18:55.293Z,9.308976
2023-05-08T02:19:55.248Z,9.308990
2023-05-08T02:20:55.333Z,9.309087
2023-05-08T02:21:55.347Z,9.309087
2023-05-08T02:22:55.266Z,9.309088
2023-05-08T02:23:55.311Z,9.309007
2023-05-08T02:24:55.174Z,9.308929
2023-05-08T02:25:55.281Z,9.308893
2023-05-08T02:26:55.200Z,9.308967
2023-05-08T02:27:55.373Z,9.308926
2023-05-08T02:28:55.335Z,9.308915
2023-05-08T02:29:55.324Z,9.308949
2023-05-08T02:30:55.157Z,9.308925
2023-05-08T02:31:55.542Z,9.308947
2023-05-08T02:32:55.149Z,9.309025
2023-05-08T02:34:15.121Z,9.309093
2023-05-08T02:35:02.607Z,9.309008
2023-05-08T02:35:57.034Z,9.308984
2023-05-08T02:36:55.175Z,9.308990
2023-05-08T02:37:55.140Z,9.309088
2023-05-08T02:38:55.127Z,9.308996
2023-05-08T02:39:55.058Z,9.308962
2023-05-08T02:40:55.098Z,9.308983
2023-05-08T02:41:55.121Z,9.309052
2023-05-08T02:42:55.195Z,9.309072
2023-05-08T02:43:55.086Z,9.309138
2023-05-08T02:44:55.100Z,9.309076
2023-05-08T02:45:55.089Z,9.309059
2023-05-08T02:46:55.356Z,9.309034
2023-05-08T02:47:55.102Z,9.308986
2023-05-08T02:48:55.185Z,9.308927
2023-05-08T02:49:55.172Z,9.308975
2023-05-08T02:50:54.956Z,9.308964
2023-05-08T02:51:55.084Z,9.309003
2023-05-08T02:52:55.052Z,9.309011
2023-05-08T02:53:55.089Z,9.309050
2023-05-08T02:54:54.963Z,9.309010
2023-05-08T02:55:54.964Z,9.308955
2023-05-08T02:56:54.911Z,9.309005
2023-05-08T02:57:54.975Z,9.308981
2023-05-08T02:58:54.906Z,9.308919
2023-05-08T02:59:54.963Z,9.308989
2023-05-08T03:00:54.911Z,9.309056
2023-05-08T03:01:54.951Z,9.308970
2023-05-08T03:02:54.894Z,9.309015
2023-05-08T03:03:54.993Z,9.309142
2023-05-08T03:04:54.967Z,9.309003
2023-05-08T03:05:54.955Z,9.309046
2023-05-08T03:06:54.884Z,9.309043
2023-05-08T03:07:54.933Z,9.308961
2023-05-08T03:08:54.996Z,9.309061
2023-05-08T03:09:54.842Z,9.309031
2023-05-08T03:10:54.931Z,9.309010
2023-05-08T03:11:54.878Z,9.309050
2023-05-08T03:12:54.777Z,9.308999
2023-05-08T03:13:54.720Z,9.309019
2023-05-08T03:14:54.792Z,9.309051
2023-05-08T03:15:54.918Z,9.309021
2023-05-08T03:16:54.887Z,9.308998
2023-05-08T03:17:54.901Z,9.308995
2023-05-08T03:18:54.791Z,9.308990
2023-05-08T03:19:55.046Z,9.309023
2023-05-08T03:20:54.832Z,9.308999
2023-05-08T03:21:54.795Z,9.308954
2023-05-08T03:22:54.871Z,9.308979
2023-05-08T03:24:00.345Z,9.309030
2023-05-08T03:24:54.731Z,9.309034
2023-05-08T03:25:54.712Z,9.308990
2023-05-08T03:26:54.850Z,9.309012
2023-05-08T03:27:54.693Z,9.309000
2023-05-08T03:28:54.671Z,9.308966
2023-05-08T03:29:54.785Z,9.309034
2023-05-08T03:30:54.779Z,9.309069
2023-05-08T03:31:54.677Z,9.308960
2023-05-08T03:32:55.272Z,9.308928
2023-05-08T03:33:54.716Z,9.309008
2023-05-08T03:34:54.621Z,9.308969
2023-05-08T03:35:54.770Z,9.308971
2023-05-08T03:36:54.708Z,9.308916
2023-05-08T03:37:54.803Z,9.308935
2023-05-08T03:38:54.667Z,9.308938
2023-05-08T03:39:54.635Z,9.308966
2023-05-08T03:40:54.759Z,9.308984
2023-05-08T03:41:54.565Z,9.309011
2023-05-08T03:42:54.590Z,9.309006
2023-05-08T03:43:54.647Z,9.308988
2023-05-08T03:44:54.559Z,9.308984
2023-05-08T03:45:54.571Z,9.309007
2023-05-08T03:46:54.562Z,9.309036
2023-05-08T03:47:54.559Z,9.309027
2023-05-08T03:48:54.704Z,9.309030
2023-05-08T03:49:54.524Z,9.309009
2023-05-08T03:50:54.634Z,9.309005
2023-05-08T03:51:54.567Z,9.309008
2023-05-08T03:52:54.512Z,9.308983
2023-05-08T03:53:54.601Z,9.308993
2023-05-08T03:54:54.524Z,9.309026
2023-05-08T03:55:54.515Z,9.308997
2023-05-08T03:56:54.676Z,9.309013
2023-05-08T03:57:54.582Z,9.308998
2023-05-08T03:58:54.501Z,9.308993
2023-05-08T03:59:54.596Z,9.308976
2023-05-08T04:00:54.642Z,9.308974
2023-05-08T04:01:54.559Z,9.308974
2023-05-08T04:02:54.637Z,9.309011
2023-05-08T04:03:54.858Z,9.309043
2023-05-08T04:04:54.538Z,9.309001
2023-05-08T04:05:54.738Z,9.309000
2023-05-08T04:06:55.242Z,9.308914
2023-05-08T04:07:54.406Z,9.308953
2023-05-08T04:08:54.498Z,9.308978
2023-05-08T04:09:54.464Z,9.308812
2023-05-08T04:10:54.473Z,9.308951
2023-05-08T04:11:54.435Z,9.309020
2023-05-08T04:12:54.435Z,9.308911
2023-05-08T04:13:54.492Z,9.308968
2023-05-08T04:14:56.350Z,9.309028
2023-05-08T04:15:55.472Z,9.309105
2023-05-08T04:16:54.427Z,9.309156
2023-05-08T04:17:54.345Z,9.309060
2023-05-08T04:18:54.539Z,9.309173
2023-05-08T04:19:54.297Z,9.309167
2023-05-08T04:20:54.927Z,9.309197
2023-05-08T04:21:54.448Z,9.309198
2023-05-08T04:22:54.344Z,9.309082
2023-05-08T04:23:54.400Z,9.309219
2023-05-08T04:24:54.281Z,9.309207
2023-05-08T04:25:54.418Z,9.309160
2023-05-08T04:26:54.436Z,9.309194
2023-05-08T04:27:54.333Z,9.309158
2023-05-08T04:28:54.204Z,9.309138
2023-05-08T04:29:54.228Z,9.309101
2023-05-08T04:31:08.823Z,9.309067
2023-05-08T04:31:54.272Z,9.309115
2023-05-08T04:32:54.282Z,9.309108
2023-05-08T04:33:54.177Z,9.309024
2023-05-08T04:34:54.136Z,9.309059
2023-05-08T04:35:54.164Z,9.309131
2023-05-08T04:36:54.154Z,9.309147
2023-05-08T04:37:54.397Z,9.309202
2023-05-08T04:38:54.122Z,9.309218
2023-05-08T04:39:54.125Z,9.309168
2023-05-08T04:40:54.180Z,9.309148
2023-05-08T04:41:54.086Z,9.309169
2023-05-08T04:43:17.580Z,9.309153
2023-05-08T04:43:54.088Z,9.309114
2023-05-08T04:44:54.080Z,9.309135
2023-05-08T04:45:54.082Z,9.309152
2023-05-08T04:46:54.087Z,9.309268
2023-05-08T04:47:54.084Z,9.309152
2023-05-08T04:48:54.088Z,9.309200
2023-05-08T04:49:54.044Z,9.309121
2023-05-08T04:50:54.081Z,9.309060
2023-05-08T04:51:54.071Z,9.309124
2023-05-08T04:52:54.024Z,9.309191
2023-05-08T04:53:54.022Z,9.309140
2023-05-08T04:54:54.049Z,9.309180
2023-05-08T04:55:55.018Z,9.309138
2023-05-08T04:56:53.988Z,9.309165
2023-05-08T04:57:53.980Z,9.309209
2023-05-08T04:58:53.999Z,9.309291
2023-05-08T04:59:54.047Z,9.309268
2023-05-08T05:00:53.977Z,9.309233
2023-05-08T05:01:53.975Z,9.309215
2023-05-08T05:02:54.146Z,9.309114
2023-05-08T05:03:54.003Z,9.309173
2023-05-08T05:04:53.977Z,9.309181
2023-05-08T05:05:54.006Z,9.309144
2023-05-08T05:06:53.925Z,9.309298
2023-05-08T05:07:53.860Z,9.309340
2023-05-08T05:08:53.905Z,9.309258
2023-05-08T05:09:53.922Z,9.309190
2023-05-08T05:10:53.950Z,9.309163
2023-05-08T05:11:53.932Z,9.309162
2023-05-08T05:12:53.879Z,9.309143
2023-05-08T05:13:53.873Z,9.309054
2023-05-08T05:14:53.891Z,9.309031
2023-05-08T05:15:53.997Z,9.309035
2023-05-08T05:16:53.886Z,9.309041
2023-05-08T05:17:53.927Z,9.309055
2023-05-08T05:18:53.839Z,9.309072
2023-05-08T05:19:53.893Z,9.309114
2023-05-08T05:20:53.845Z,9.309113
2023-05-08T05:21:53.876Z,9.309128
2023-05-08T05:22:53.837Z,9.309118
2023-05-08T05:23:53.840Z,9.309134
2023-05-08T05:24:53.791Z,9.309106
2023-05-08T05:25:53.781Z,9.309140
2023-05-08T05:26:53.797Z,9.309114
2023-05-08T05:27:53.819Z,9.309127
2023-05-08T05:28:53.764Z,9.309126
2023-05-08T05:29:53.788Z,9.309109
2023-05-08T05:30:53.753Z,9.309118
2023-05-08T05:31:53.906Z,9.309110
2023-05-08T05:32:53.843Z,9.309118
2023-05-08T05:33:53.760Z,9.309107
2023-05-08T05:34:53.776Z,9.309057
2023-05-08T05:35:53.696Z,9.309016
2023-05-08T05:36:53.687Z,9.309104
2023-05-08T05:37:53.715Z,9.309020
2023-05-08T05:38:54.209Z,9.309023
2023-05-08T05:39:53.719Z,9.309104
2023-05-08T05:40:53.749Z,9.309089
2023-05-08T05:41:53.689Z,9.309065
2023-05-08T05:42:53.718Z,9.309021
2023-05-08T05:43:53.711Z,9.309042
2023-05-08T05:44:53.693Z,9.309126
2023-05-08T05:45:54.636Z,9.309077
2023-05-08T05:47:25.624Z,9.309112
2023-05-08T05:47:53.692Z,9.309072
2023-05-08T05:48:53.636Z,9.309109
2023-05-08T05:49:53.675Z,9.309158
2023-05-08T05:50:53.682Z,9.309109
2023-05-08T05:51:53.661Z,9.309108
2023-05-08T05:52:53.642Z,9.309124
2023-05-08T05:53:53.617Z,9.309081
2023-05-08T05:54:53.633Z,9.309157
2023-05-08T05:55:53.590Z,9.309103
2023-05-08T05:56:53.592Z,9.309069
2023-05-08T05:57:53.547Z,9.309118
2023-05-08T05:58:53.587Z,9.309129
2023-05-08T05:59:54.816Z,9.309042
2023-05-08T06:00:54.606Z,9.309001
2023-05-08T06:01:53.643Z,9.309039
2023-05-08T06:02:53.726Z,9.309005
2023-05-08T06:03:53.661Z,9.309090
2023-05-08T06:04:53.534Z,9.309104
2023-05-08T06:05:54.337Z,9.309111
2023-05-08T06:06:53.650Z,9.309095
2023-05-08T06:07:53.515Z,9.309072
2023-05-08T06:08:54.484Z,9.308983
2023-05-08T06:09:53.499Z,9.309026
2023-05-08T06:10:53.473Z,9.309095
2023-05-08T06:11:53.521Z,9.309116
2023-05-08T06:12:53.448Z,9.309107
2023-05-08T06:13:53.499Z,9.309066
2023-05-08T06:14:53.470Z,9.309098
2023-05-08T06:15:53.522Z,9.309095
2023-05-08T06:16:54.477Z,9.308990
2023-05-08T06:17:53.434Z,9.309093
2023-05-08T06:18:53.433Z,9.309079
2023-05-08T06:19:53.451Z,9.309052
2023-05-08T06:20:53.390Z,9.309019
2023-05-08T06:21:53.408Z,9.309035
2023-05-08T06:23:09.800Z,9.309068
2023-05-08T06:23:54.373Z,9.309062
2023-05-08T06:24:53.378Z,9.309071
2023-05-08T06:25:53.434Z,9.309067
2023-05-08T06:26:53.376Z,9.309078
2023-05-08T06:27:53.464Z,9.309087
2023-05-08T06:28:53.358Z,9.309155
2023-05-08T06:29:53.365Z,9.309118
2023-05-08T06:30:53.388Z,9.309079
2023-05-08T06:31:53.370Z,9.309111
2023-05-08T06:32:53.391Z,9.309153
2023-05-08T06:33:53.355Z,9.309090
2023-05-08T06:34:53.369Z,9.309052
2023-05-08T06:35:53.295Z,9.309050
2023-05-08T06:36:53.249Z,9.309114
2023-05-08T06:37:53.284Z,9.309138
2023-05-08T06:38:53.356Z,9.309058
2023-05-08T06:40:03.853Z,9.309029
2023-05-08T06:40:55.307Z,9.309022
2023-05-08T06:41:54.280Z,9.309050
2023-05-08T06:42:53.244Z,9.309024
2023-05-08T06:43:53.353Z,9.309019
2023-05-08T06:44:53.244Z,9.308986
2023-05-08T06:45:53.263Z,9.309022
2023-05-08T06:46:53.280Z,9.309010
2023-05-08T06:47:53.205Z,9.309032
2023-05-08T06:48:53.233Z,9.309059
2023-05-08T06:49:53.999Z,9.309044
2023-05-08T06:50:53.196Z,9.309033
2023-05-08T06:51:54.018Z,9.309046
2023-05-08T06:52:53.162Z,9.308982
2023-05-08T06:53:53.232Z,9.308961
2023-05-08T06:54:53.176Z,9.308970
2023-05-08T06:55:54.198Z,9.308988
2023-05-08T06:56:53.128Z,9.309053
2023-05-08T06:57:53.177Z,9.309085
2023-05-08T06:59:04.571Z,9.308950
2023-05-08T06:59:55.175Z,9.309019
2023-05-08T07:00:53.231Z,9.309008
2023-05-08T07:01:53.158Z,9.309007
2023-05-08T07:02:53.192Z,9.308992
2023-05-08T07:03:53.115Z,9.309049
2023-05-08T07:04:53.128Z,9.309057
2023-05-08T07:05:53.150Z,9.309015
2023-05-08T07:06:53.077Z,9.308977
2023-05-08T07:07:53.111Z,9.308912
2023-05-08T07:08:53.082Z,9.308944
2023-05-08T07:09:53.118Z,9.308965
2023-05-08T07:10:53.095Z,9.309008
2023-05-08T07:11:53.061Z,9.308987
2023-05-08T07:12:53.218Z,9.309036
2023-05-08T07:13:53.049Z,9.309043
2023-05-08T07:14:53.809Z,9.309023
2023-05-08T07:15:53.069Z,9.308985
2023-05-08T07:16:53.122Z,9.308967
2023-05-08T07:17:53.199Z,9.308951
2023-05-08T07:18:53.059Z,9.308969
2023-05-08T07:19:53.002Z,9.308995
2023-05-08T07:20:52.991Z,9.309012
2023-05-08T07:21:53.037Z,9.309019
2023-05-08T07:22:53.017Z,9.309041
2023-05-08T07:23:52.976Z,9.308972
2023-05-08T07:24:52.969Z,9.308993
2023-05-08T07:25:53.952Z,9.309048
2023-05-08T07:26:52.961Z,9.309023
2023-05-08T07:27:52.999Z,9.309031
2023-05-08T07:28:52.976Z,9.308929
2023-05-08T07:29:52.897Z,9.308919
2023-05-08T07:30:52.923Z,9.308920
2023-05-08T07:31:52.975Z,9.309051
2023-05-08T07:32:53.104Z,9.309073
2023-05-08T07:33:52.892Z,9.309021
2023-05-08T07:34:52.898Z,9.308948
2023-05-08T07:35:52.898Z,9.309032
2023-05-08T07:36:52.919Z,9.308959
2023-05-08T07:37:52.990Z,9.308982
2023-05-08T07:38:52.896Z,9.309055
2023-05-08T07:39:52.958Z,9.309101
2023-05-08T07:40:52.892Z,9.309021
2023-05-08T07:41:52.945Z,9.309073
2023-05-08T07:42:52.878Z,9.309072
2023-05-08T07:43:52.871Z,9.309018
2023-05-08T07:44:55.246Z,9.309058
2023-05-08T07:45:53.842Z,9.309055
2023-05-08T07:46:52.848Z,9.309023
2023-05-08T07:47:52.816Z,9.309034
2023-05-08T07:48:52.802Z,9.309064
2023-05-08T07:49:53.049Z,9.309093
2023-05-08T07:50:52.771Z,9.309062
2023-05-08T07:51:52.748Z,9.309094
2023-05-08T07:52:52.965Z,9.309074
2023-05-08T07:53:52.734Z,9.309072
2023-05-08T07:54:52.732Z,9.309093
2023-05-08T07:55:52.762Z,9.309096
2023-05-08T07:56:52.864Z,9.309069
2023-05-08T07:57:52.725Z,9.309102
2023-05-08T07:58:52.683Z,9.309077
2023-05-08T07:59:52.726Z,9.309094
2023-05-08T08:00:52.799Z,9.309157
2023-05-08T08:01:52.739Z,9.309197
2023-05-08T08:02:52.906Z,9.309133
2023-05-08T08:03:52.765Z,9.309120
2023-05-08T08:04:52.672Z,9.309101
2023-05-08T08:05:52.733Z,9.309131
2023-05-08T08:06:52.664Z,9.309154
2023-05-08T08:07:52.647Z,9.309175
2023-05-08T08:08:52.652Z,9.309157
2023-05-08T08:09:52.630Z,9.309119
2023-05-08T08:11:03.805Z,9.309136
2023-05-08T08:11:53.679Z,9.309107
2023-05-08T08:12:52.651Z,9.309120
2023-05-08T08:13:52.633Z,9.309101
2023-05-08T08:14:52.617Z,9.309119
2023-05-08T08:15:52.670Z,9.309085
2023-05-08T08:16:52.846Z,9.309048
2023-05-08T08:17:52.650Z,9.309077
2023-05-08T08:18:52.594Z,9.309112
2023-05-08T08:19:52.608Z,9.309186
2023-05-08T08:20:52.561Z,9.309201
2023-05-08T08:21:52.609Z,9.309216
2023-05-08T08:22:52.550Z,9.309157
2023-05-08T08:23:52.557Z,9.309191
2023-05-08T08:24:54.895Z,9.309165
2023-05-08T08:25:53.514Z,9.309223
2023-05-08T08:26:52.558Z,9.309167
2023-05-08T08:27:52.591Z,9.309197
2023-05-08T08:28:52.473Z,9.309136
2023-05-08T08:29:58.793Z,9.309048
2023-05-08T08:30:54.555Z,9.309093
2023-05-08T08:31:52.481Z,9.309088
2023-05-08T08:32:52.702Z,9.309092
2023-05-08T08:33:52.454Z,9.309161
2023-05-08T08:34:52.470Z,9.309098
2023-05-08T08:35:52.476Z,9.309171
2023-05-08T08:36:52.469Z,9.309062
2023-05-08T08:37:52.435Z,9.309053
2023-05-08T08:38:52.496Z,9.309057
2023-05-08T08:39:52.437Z,9.309048
2023-05-08T08:40:52.435Z,9.309053
2023-05-08T08:41:52.405Z,9.309096
2023-05-08T08:42:52.416Z,9.309132
2023-05-08T08:43:52.464Z,9.309127
2023-05-08T08:44:52.391Z,9.309070
2023-05-08T08:45:52.459Z,9.309057
2023-05-08T08:46:52.546Z,9.309072
2023-05-08T08:47:52.461Z,9.309030
2023-05-08T08:48:52.397Z,9.309063
2023-05-08T08:49:52.476Z,9.309130
2023-05-08T08:50:52.330Z,9.309105
2023-05-08T08:51:52.330Z,9.309034
2023-05-08T08:52:52.327Z,9.309022
2023-05-08T08:53:52.366Z,9.309130
2023-05-08T08:54:52.392Z,9.309126
2023-05-08T08:55:52.459Z,9.309037
2023-05-08T08:56:52.287Z,9.308978
2023-05-08T08:57:52.317Z,9.309027
2023-05-08T08:58:52.380Z,9.309031
2023-05-08T08:59:52.326Z,9.309006
2023-05-08T09:00:52.332Z,9.308970
2023-05-08T09:01:52.347Z,9.308957
2023-05-08T09:02:52.339Z,9.309020
2023-05-08T09:03:52.458Z,9.309013
2023-05-08T09:04:52.338Z,9.308960
2023-05-08T09:05:52.254Z,9.309062
2023-05-08T09:06:52.253Z,9.309009
2023-05-08T09:07:52.237Z,9.309106
2023-05-08T09:08:52.287Z,9.309076
2023-05-08T09:09:52.234Z,9.309093
2023-05-08T09:10:52.196Z,9.309092
2023-05-08T09:11:52.241Z,9.309095
2023-05-08T09:13:00.080Z,9.309062
2023-05-08T09:13:52.175Z,9.309147
2023-05-08T09:14:52.195Z,9.309131
2023-05-08T09:15:52.252Z,9.309105
2023-05-08T09:16:52.358Z,9.309076
2023-05-08T09:17:52.219Z,9.309010
2023-05-08T09:18:52.196Z,9.309010
2023-05-08T09:19:52.154Z,9.309011
2023-05-08T09:20:52.207Z,9.309234
2023-05-08T09:21:52.076Z,9.309077
2023-05-08T09:22:52.193Z,9.309091
2023-05-08T09:23:52.115Z,9.309092
2023-05-08T09:24:52.156Z,9.309052
2023-05-08T09:25:52.144Z,9.309058
2023-05-08T09:26:52.113Z,9.308973
2023-05-08T09:27:52.144Z,9.309016
2023-05-08T09:28:52.089Z,9.309028
2023-05-08T09:29:52.115Z,9.309109
2023-05-08T09:30:53.075Z,9.309142
2023-05-08T09:31:52.121Z,9.309135
2023-05-08T09:32:52.200Z,9.309142
2023-05-08T09:33:52.157Z,9.309128
2023-05-08T09:34:52.057Z,9.309129
2023-05-08T09:35:52.023Z,9.309059
2023-05-08T09:36:52.123Z,9.309075
2023-05-08T09:37:52.040Z,9.309051
2023-05-08T09:38:52.052Z,9.309128
2023-05-08T09:39:52.030Z,9.309126
2023-05-08T09:40:51.968Z,9.309147
2023-05-08T09:41:52.000Z,9.309128
2023-05-08T09:42:52.003Z,9.309093
2023-05-08T09:43:51.964Z,9.309074
2023-05-08T09:44:52.022Z,9.309073
2023-05-08T09:45:52.017Z,9.309230
2023-05-08T09:46:51.976Z,9.309128
2023-05-08T09:47:51.972Z,9.309052
2023-05-08T09:48:51.971Z,9.309061
2023-05-08T09:49:51.995Z,9.309075
2023-05-08T09:50:51.971Z,9.309123
2023-05-08T09:51:51.915Z,9.309092
2023-05-08T09:52:52.040Z,9.309097
2023-05-08T09:53:51.999Z,9.309108
2023-05-08T09:54:51.926Z,9.309114
2023-05-08T09:55:51.894Z,9.309146
2023-05-08T09:56:51.854Z,9.309125
2023-05-08T09:57:51.876Z,9.309163
2023-05-08T09:58:51.939Z,9.309139
2023-05-08T09:59:51.895Z,9.309155
2023-05-08T10:00:51.949Z,9.309215
2023-05-08T10:01:51.874Z,9.309116
2023-05-08T10:02:51.924Z,9.309097
2023-05-08T10:03:51.875Z,9.309117
2023-05-08T10:04:51.991Z,9.309142
2023-05-08T10:05:51.811Z,9.309093
2023-05-08T10:06:52.340Z,9.309044
2023-05-08T10:07:52.053Z,9.309143
2023-05-08T10:08:51.859Z,9.309143
2023-05-08T10:09:51.794Z,9.309150
2023-05-08T10:10:52.442Z,9.309115
2023-05-08T10:11:51.908Z,9.309132
2023-05-08T10:12:51.841Z,9.309171
2023-05-08T10:13:51.772Z,9.309196
2023-05-08T10:14:51.767Z,9.309092
2023-05-08T10:15:51.774Z,9.309096
2023-05-08T10:16:51.843Z,9.309098
2023-05-08T10:17:52.796Z,9.309068
2023-05-08T10:18:51.776Z,9.309100
2023-05-08T10:19:51.717Z,9.309132
2023-05-08T10:20:51.716Z,9.309061
2023-05-08T10:21:51.732Z,9.309023
2023-05-08T10:22:51.776Z,9.309060
2023-05-08T10:23:51.752Z,9.309072
2023-05-08T10:24:51.791Z,9.309051
2023-05-08T10:25:54.115Z,9.308994
2023-05-08T10:27:05.568Z,9.309024
2023-05-08T10:27:53.687Z,9.309035
2023-05-08T10:28:51.670Z,9.309099
2023-05-08T10:29:51.655Z,9.308997
2023-05-08T10:30:51.663Z,9.308944
2023-05-08T10:31:51.757Z,9.308969
2023-05-08T10:32:51.685Z,9.309012
2023-05-08T10:33:52.074Z,9.309077
2023-05-08T10:34:51.687Z,9.309029
2023-05-08T10:35:51.868Z,9.309092
2023-05-08T10:36:53.904Z,9.309116
2023-05-08T10:37:51.807Z,9.309044
2023-05-08T10:38:51.894Z,9.309062
2023-05-08T10:39:51.607Z,9.309068
2023-05-08T10:40:51.630Z,9.308983
2023-05-08T10:41:51.573Z,9.308988
2023-05-08T10:42:51.581Z,9.309031
2023-05-08T10:43:51.603Z,9.309023
2023-05-08T10:44:51.619Z,9.309050
2023-05-08T10:45:51.804Z,9.309105
2023-05-08T10:46:51.630Z,9.309154
2023-05-08T10:47:51.671Z,9.309087
2023-05-08T10:48:51.564Z,9.309019
2023-05-08T10:49:51.694Z,9.309072
2023-05-08T10:50:51.624Z,9.309067
2023-05-08T10:51:51.498Z,9.309015
2023-05-08T10:52:51.520Z,9.309047
2023-05-08T10:53:51.496Z,9.309031
2023-05-08T10:54:51.482Z,9.309014
2023-05-08T10:55:51.515Z,9.308981
2023-05-08T10:56:51.478Z,9.309012
2023-05-08T10:57:51.456Z,9.309010
2023-05-08T10:58:51.461Z,9.308991
2023-05-08T10:59:51.472Z,9.309004
2023-05-08T11:00:51.480Z,9.309000
2023-05-08T11:01:51.532Z,9.309021
2023-05-08T11:03:31.487Z,9.309009
2023-05-08T11:03:52.558Z,9.308986
2023-05-08T11:04:51.472Z,9.309011
2023-05-08T11:06:23.453Z,9.309053
2023-05-08T11:06:51.441Z,9.309031
2023-05-08T11:07:51.405Z,9.309031
2023-05-08T11:08:51.511Z,9.309085
2023-05-08T11:09:51.347Z,9.309095
2023-05-08T11:10:51.369Z,9.309101
2023-05-08T11:11:51.426Z,9.309023
2023-05-08T11:12:51.406Z,9.309070
2023-05-08T11:13:51.380Z,9.309093
2023-05-08T11:14:51.354Z,9.308998
2023-05-08T11:15:51.404Z,9.309055
2023-05-08T11:16:56.496Z,9.309065
2023-05-08T11:17:51.581Z,9.309033
2023-05-08T11:18:51.558Z,9.309042
2023-05-08T11:19:52.095Z,9.308950
2023-05-08T11:20:51.329Z,9.309087
2023-05-08T11:21:51.549Z,9.309110
2023-05-08T11:22:51.330Z,9.309097
2023-05-08T11:23:52.273Z,9.309103
2023-05-08T11:24:51.850Z,9.309134
2023-05-08T11:25:51.295Z,9.309088
2023-05-08T11:26:51.451Z,9.309112
2023-05-08T11:27:51.401Z,9.309144
2023-05-08T11:28:51.513Z,9.309150
2023-05-08T11:29:51.290Z,9.309179
2023-05-08T11:30:51.392Z,9.309142
2023-05-08T11:31:51.290Z,9.309094
2023-05-08T11:32:51.593Z,9.309050
2023-05-08T11:33:51.209Z,9.309034
2023-05-08T11:34:52.266Z,9.309079
2023-05-08T11:35:51.234Z,9.309152
2023-05-08T11:36:51.452Z,9.309113
2023-05-08T11:37:52.116Z,9.309150
2023-05-08T11:38:51.549Z,9.309109
2023-05-08T11:39:51.567Z,9.309194
2023-05-08T11:40:51.773Z,9.309214
2023-05-08T11:41:51.459Z,9.309209
2023-05-08T11:42:51.417Z,9.309173
2023-05-08T11:43:51.566Z,9.309126
2023-05-08T11:44:51.276Z,9.309174